Time;durP1;ratioP1;P1;durP2;ratioP2;P2;SDS_P1;SDS_P2;PMS_P1;PMS_P2;Temp;Humidity;BMP_temperature;BMP_pressure;BME280_temperature;BME280_humidity;BME280_pressure;Samples;Min_cycle;Max_cycle;Signal;HPM_P1;HPM_P2
2023/03/23 00:04:17;;;;;;;2.53;1.60;;;15.10;68.20;;;;;;20828450;28;20642;-76
2023/03/23 00:14:22;;;;;;;4.10;1.60;;;15.10;68.10;;;;;;20812766;28;20259;-75
2023/03/23 00:24:22;;;;;;;2.10;1.73;;;15.20;68.70;;;;;;20843481;28;20208;-75
2023/03/23 00:39:01;;;;;;;3.47;2.00;;;15.10;68.70;;;;;;21068707;28;20490;-81
2023/03/23 00:49:02;;;;;;;2.57;1.80;;;15.10;69.10;;;;;;21067379;28;20233;-81
2023/03/23 00:59:03;;;;;;;2.13;1.60;;;15.10;69.70;;;;;;21066902;28;20340;-76
2023/03/23 01:09:03;;;;;;;7.73;5.33;;;15.00;70.30;;;;;;21066049;28;20232;-76
2023/03/23 01:19:04;;;;;;;2.73;2.00;;;15.00;69.70;;;;;;21064907;28;20199;-77
2023/03/23 01:29:05;;;;;;;2.57;1.60;;;15.00;69.50;;;;;;21065514;28;20255;-77
2023/03/23 01:39:06;;;;;;;4.33;1.70;;;15.00;69.70;;;;;;21147917;28;20210;-78
2023/03/23 01:49:29;;;;;;;3.57;1.50;;;15.00;68.80;;;;;;21097146;28;20554;-75
2023/03/23 01:59:33;;;;;;;2.33;1.67;;;14.90;68.70;;;;;;21090857;28;20206;-74
2023/03/23 02:09:34;;;;;;;2.63;1.77;;;14.90;69.30;;;;;;21089397;28;20231;-76
2023/03/23 02:19:48;;;;;;;2.17;1.67;;;14.90;68.30;;;;;;21053431;28;20256;-75
2023/03/23 02:29:55;;;;;;;1.93;1.43;;;14.90;68.00;;;;;;21087345;28;20246;-75
2023/03/23 02:40:07;;;;;;;2.97;2.10;;;14.80;68.40;;;;;;21086837;28;20229;-75
2023/03/23 02:50:11;;;;;;;2.33;1.33;;;14.80;68.40;;;;;;21088940;28;20653;-80
2023/03/23 03:00:14;;;;;;;2.10;1.60;;;14.70;67.70;;;;;;21049730;28;20197;-79
2023/03/23 03:10:19;;;;;;;1.87;1.47;;;14.60;67.90;;;;;;21084047;28;20242;-83
2023/03/23 03:20:22;;;;;;;2.00;1.37;;;14.60;68.40;;;;;;21083795;28;20203;-82
2023/03/23 03:30:28;;;;;;;2.20;1.50;;;14.70;68.10;;;;;;21064318;28;20253;-84
2023/03/23 03:40:29;;;;;;;2.03;1.30;;;14.60;68.30;;;;;;21063776;28;20202;-82
2023/03/23 03:50:29;;;;;;;3.33;1.50;;;14.60;69.00;;;;;;21081400;28;20240;-81
2023/03/23 04:00:30;;;;;;;2.23;1.57;;;14.50;68.50;;;;;;21062268;28;20203;-81
2023/03/23 04:10:31;;;;;;;1.93;1.60;;;14.60;68.50;;;;;;21079818;28;20245;-81
2023/03/23 04:20:34;;;;;;;1.77;1.40;;;14.60;68.80;;;;;;21080713;28;20201;-83
2023/03/23 04:30:35;;;;;;;1.50;1.37;;;14.50;68.90;;;;;;21061088;28;20242;-80
2023/03/23 04:40:36;;;;;;;1.97;1.50;;;14.50;69.10;;;;;;21078646;28;20652;-80
2023/03/23 04:50:38;;;;;;;3.97;1.50;;;14.50;69.30;;;;;;21043525;28;20286;-81
2023/03/23 05:00:38;;;;;;;2.53;1.60;;;14.50;69.30;;;;;;21077802;28;20201;-79
2023/03/23 05:10:39;;;;;;;4.10;2.00;;;14.40;70.10;;;;;;21059362;28;20239;-82
2023/03/23 05:20:41;;;;;;;3.13;1.87;;;14.40;70.90;;;;;;21085463;28;20199;-83
2023/03/23 05:30:44;;;;;;;2.03;1.80;;;14.20;71.60;;;;;;21074174;28;20476;-81
2023/03/23 05:40:44;;;;;;;3.93;2.20;;;14.10;74.00;;;;;;21091470;28;20205;-81
2023/03/23 05:50:45;;;;;;;6.83;3.50;;;13.90;76.40;;;;;;21093289;28;20324;-84
2023/03/23 06:00:46;;;;;;;5.60;3.40;;;13.90;78.30;;;;;;21090829;28;20255;-84
2023/03/23 06:10:48;;;;;;;8.50;3.70;;;13.80;80.30;;;;;;21088796;28;20494;-80
2023/03/23 06:20:48;;;;;;;5.83;2.60;;;13.80;81.50;;;;;;21088375;28;20657;-80
2023/03/23 06:30:49;;;;;;;3.20;2.43;;;13.80;84.80;;;;;;21068537;28;20592;-73
2023/03/23 06:40:52;;;;;;;3.97;2.93;;;13.80;88.40;;;;;;21085925;28;20315;-74
2023/03/23 06:50:53;;;;;;;5.47;2.80;;;13.90;90.10;;;;;;21068479;28;20292;-74
2023/03/23 07:00:58;;;;;;;2.67;1.97;;;14.00;90.30;;;;;;21100118;28;20288;-76
2023/03/23 07:10:58;;;;;;;4.00;1.80;;;14.30;86.70;;;;;;21066451;28;20703;-72
2023/03/23 07:21:00;;;;;;;1.70;1.60;;;14.20;87.00;;;;;;21082676;28;20345;-77
2023/03/23 07:31:00;;;;;;;3.63;1.67;;;14.50;83.80;;;;;;21062795;28;20253;-79
2023/03/23 07:41:01;;;;;;;2.10;1.50;;;14.60;81.40;;;;;;21062299;28;20658;-77
2023/03/23 07:51:02;;;;;;;2.37;1.43;;;14.60;81.70;;;;;;21080831;28;20280;-77
2023/03/23 08:01:03;;;;;;;3.77;1.70;;;14.80;80.30;;;;;;21079487;28;20669;-76
2023/03/23 08:18:17;;;;;;;3.83;1.50;;;14.90;81.40;;;;;;21194630;27;1239803;-79
2023/03/23 08:28:17;;;;;;;1.87;1.30;;;14.90;82.10;;;;;;21133171;28;20297;-75
2023/03/23 08:38:19;;;;;;;2.08;1.50;;;14.90;83.60;;;;;;21150625;28;20213;-79
2023/03/23 08:48:22;;;;;;;3.13;1.50;;;14.80;84.50;;;;;;21130982;28;20213;-79
2023/03/23 08:58:23;;;;;;;2.00;1.70;;;15.00;85.70;;;;;;21130690;28;20210;-75
2023/03/23 09:13:18;;;;;;;6.37;5.27;;;15.10;86.60;;;;;;21067398;27;20559;-73
2023/03/23 09:23:20;;;;;;;2.33;1.67;;;15.10;87.10;;;;;;21067033;28;20206;-75
2023/03/23 09:33:20;;;;;;;1.87;1.40;;;15.40;87.20;;;;;;21066105;28;20207;-73
2023/03/23 09:43:47;;;;;;;2.00;1.70;;;15.50;87.10;;;;;;21065800;28;20229;-75
2023/03/23 09:53:56;;;;;;;2.30;1.90;;;15.40;87.60;;;;;;21098172;27;20455;-74
2023/03/23 10:04:06;;;;;;;2.83;1.70;;;15.40;87.60;;;;;;21063299;28;20318;-73
2023/03/23 10:14:27;;;;;;;2.80;1.40;;;15.50;88.40;;;;;;21061267;28;20293;-73
2023/03/23 10:24:51;;;;;;;2.10;1.37;;;15.50;87.70;;;;;;21006358;28;20589;-77
2023/03/23 10:34:59;;;;;;;2.00;1.20;;;15.70;86.50;;;;;;20994543;28;20200;-74
2023/03/23 10:45:15;;;;;;;1.70;1.23;;;15.80;85.70;;;;;;21037943;28;20234;-72
2023/03/23 10:55:23;;;;;;;3.40;1.90;;;16.20;84.20;;;;;;21003337;28;20674;-75
2023/03/23 11:05:27;;;;;;;1.50;1.40;;;16.60;82.90;;;;;;21003654;28;20238;-75
2023/03/23 11:15:44;;;;;;;2.63;1.20;;;16.80;82.20;;;;;;21002052;28;20211;-75
2023/03/23 11:25:53;;;;;;;3.07;1.20;;;16.80;81.00;;;;;;21001763;28;20235;-75
2023/03/23 11:35:55;;;;;;;2.53;1.60;;;16.70;80.60;;;;;;20999973;28;20621;-76
2023/03/23 11:46:22;;;;;;;1.07;1.00;;;16.50;79.60;;;;;;20999644;28;20579;-81
2023/03/23 11:56:36;;;;;;;4.53;3.10;;;16.50;80.50;;;;;;21001189;28;20200;-78
2023/03/23 12:07:21;;;;;;;2.33;1.93;;;16.50;81.20;;;;;;20998500;28;20243;-78
2023/03/23 12:18:01;;;;;;;2.70;1.90;;;16.20;83.00;;;;;;20980437;28;20233;-80
2023/03/23 12:36:17;;;;;;;2.80;2.00;;;15.90;84.10;;;;;;21237216;27;21080;-73
2023/03/23 12:46:52;;;;;;;2.90;2.00;;;15.80;86.00;;;;;;21150743;28;20791;-78
2023/03/23 12:57:21;;;;;;;3.97;1.67;;;16.60;86.70;;;;;;21149849;28;20217;-80
2023/03/23 13:07:28;;;;;;;3.37;1.80;;;16.70;87.30;;;;;;21140865;28;20240;-81
2023/03/23 13:17:35;;;;;;;1.80;1.53;;;17.00;86.20;;;;;;21150724;28;20209;-80
2023/03/23 13:27:36;;;;;;;1.30;1.20;;;17.30;86.00;;;;;;21146623;28;20248;-80
2023/03/23 13:37:45;;;;;;;2.70;1.60;;;17.40;85.60;;;;;;21144845;28;20210;-79
2023/03/23 13:47:46;;;;;;;3.10;1.60;;;17.60;84.30;;;;;;21089779;28;20730;-81
2023/03/23 13:58:02;;;;;;;2.17;1.30;;;17.50;83.60;;;;;;21088721;28;20213;-77
2023/03/23 14:08:09;;;;;;;1.90;1.40;;;17.20;83.90;;;;;;21087802;28;20702;-77
2023/03/23 14:18:15;;;;;;;1.87;1.40;;;16.90;85.40;;;;;;21086652;28;20286;-78
2023/03/23 14:28:21;;;;;;;3.60;2.10;;;16.70;85.40;;;;;;21085907;28;20709;-79
2023/03/23 14:38:27;;;;;;;2.30;1.30;;;16.40;85.90;;;;;;21084657;28;20205;-80
2023/03/23 14:48:28;;;;;;;2.43;1.50;;;16.40;86.60;;;;;;21085496;28;20608;-80
2023/03/23 14:58:30;;;;;;;5.63;2.03;;;16.40;86.50;;;;;;21084800;28;20235;-80
2023/03/23 15:08:33;;;;;;;2.30;1.13;;;16.10;85.40;;;;;;21094647;28;20294;-78
2023/03/23 15:18:37;;;;;;;2.67;1.20;;;15.90;85.70;;;;;;21083691;28;20626;-78
2023/03/23 15:28:40;;;;;;;1.50;1.20;;;15.70;85.90;;;;;;21082180;28;20716;-77
2023/03/23 15:38:45;;;;;;;1.40;1.20;;;15.50;86.80;;;;;;21080829;28;20670;-78
2023/03/23 15:48:53;;;;;;;1.97;1.40;;;15.40;87.40;;;;;;21080567;28;20223;-77
2023/03/23 15:58:53;;;;;;;2.17;1.60;;;15.40;88.80;;;;;;21078270;28;20200;-77
2023/03/23 16:08:56;;;;;;;2.10;1.87;;;15.60;88.30;;;;;;21078980;28;20234;-77
2023/03/23 16:18:57;;;;;;;1.93;1.50;;;15.60;88.10;;;;;;21079438;28;20202;-78
2023/03/23 16:28:59;;;;;;;2.33;2.13;;;15.60;88.20;;;;;;21077352;28;20268;-72
2023/03/23 16:39:17;;;;;;;3.47;1.90;;;15.50;88.10;;;;;;21070999;28;20684;-76
2023/03/23 16:49:19;;;;;;;3.90;1.90;;;15.40;88.30;;;;;;21035767;28;20355;-76
2023/03/23 16:59:21;;;;;;;2.33;2.00;;;15.30;88.40;;;;;;21039837;28;20581;-76
2023/03/23 17:09:23;;;;;;;2.57;1.90;;;15.20;88.60;;;;;;20992595;28;20242;-75
2023/03/23 17:19:27;;;;;;;2.83;2.20;;;15.20;89.30;;;;;;21065197;28;20603;-77
2023/03/23 17:29:28;;;;;;;3.30;2.57;;;15.10;88.90;;;;;;21091176;28;20266;-72
2023/03/23 17:39:33;;;;;;;2.43;2.13;;;15.10;89.30;;;;;;21091296;28;20211;-72
2023/03/23 17:49:44;;;;;;;2.27;2.07;;;15.10;89.30;;;;;;21061758;28;20320;-79
2023/03/23 17:59:46;;;;;;;3.43;2.40;;;15.10;89.50;;;;;;21006026;28;20215;-82
2023/03/23 18:09:48;;;;;;;2.30;1.80;;;15.00;90.00;;;;;;21005069;28;20226;-82
2023/03/23 18:19:50;;;;;;;5.03;2.60;;;16.30;90.90;;;;;;21004660;28;20214;-75
2023/03/23 18:29:52;;;;;;;4.67;2.83;;;15.10;90.20;;;;;;21003935;28;20242;-79
2023/03/23 18:39:53;;;;;;;3.53;2.97;;;15.10;90.40;;;;;;21002603;28;20219;-76
2023/03/23 18:49:55;;;;;;;8.83;3.33;;;15.10;90.50;;;;;;20999826;28;20227;-76
2023/03/23 18:59:58;;;;;;;11.40;4.40;;;;;;;;;;20998728;28;20206;-78
2023/03/23 19:09:59;;;;;;;5.37;3.93;;;15.00;90.90;;;;;;20997638;28;20261;-76
2023/03/23 19:20:01;;;;;;;6.63;3.37;;;15.00;91.00;;;;;;20997659;28;20214;-77
2023/03/23 19:30:04;;;;;;;5.67;3.30;;;15.00;91.20;;;;;;20997745;28;20254;-76
2023/03/23 19:40:06;;;;;;;8.50;6.00;;;14.90;91.20;;;;;;20996782;28;20211;-75
2023/03/23 19:50:28;;;;;;;7.70;5.80;;;14.90;91.30;;;;;;20997184;28;20321;-79
2023/03/23 20:00:30;;;;;;;11.37;4.90;;;14.80;91.60;;;;;;20996014;28;20725;-78
2023/03/23 20:10:35;;;;;;;9.73;5.90;;;14.80;91.90;;;;;;20992894;28;20712;-79
2023/03/23 20:20:37;;;;;;;5.37;4.20;;;14.80;92.00;;;;;;20993011;28;20647;-80
2023/03/23 20:30:39;;;;;;;6.23;4.40;;;14.70;92.20;;;;;;20992767;28;20247;-77
2023/03/23 20:40:40;;;;;;;7.77;5.90;;;14.70;92.40;;;;;;20992378;28;20805;-80
2023/03/23 20:50:42;;;;;;;8.53;5.30;;;14.70;92.60;;;;;;20998577;28;20292;-79
2023/03/23 21:00:45;;;;;;;6.37;4.47;;;14.60;92.60;;;;;;21010694;28;20643;-79
2023/03/23 21:10:48;;;;;;;6.83;4.80;;;14.60;92.80;;;;;;21006447;28;20247;-80
2023/03/23 21:20:50;;;;;;;8.63;4.77;;;14.50;92.90;;;;;;21004891;28;20291;-80
2023/03/23 21:30:53;;;;;;;12.33;4.93;;;14.50;93.10;;;;;;21026901;28;20243;-81
2023/03/23 21:40:57;;;;;;;6.00;4.50;;;14.40;93.20;;;;;;21069905;28;20198;-80
2023/03/23 21:51:13;;;;;;;6.00;4.13;;;14.30;93.30;;;;;;21087284;28;20301;-80
2023/03/23 22:01:16;;;;;;;5.17;4.00;;;14.30;93.30;;;;;;21089011;28;20680;-82
2023/03/23 22:11:22;;;;;;;8.37;4.23;;;14.30;93.40;;;;;;21088748;28;20230;-80
2023/03/23 22:21:25;;;;;;;7.27;5.00;;;;;;;;;;21088930;28;20247;-80
2023/03/23 22:31:32;;;;;;;6.30;4.87;;;14.30;93.50;;;;;;21087614;28;20238;-79
2023/03/23 22:41:38;;;;;;;6.13;4.70;;;14.20;93.70;;;;;;21086838;28;20697;-80
2023/03/23 22:51:40;;;;;;;9.93;5.30;;;14.10;93.80;;;;;;21085816;28;20243;-80
2023/03/23 23:01:44;;;;;;;9.53;5.00;;;14.10;94.10;;;;;;21085851;28;20290;-80
2023/03/23 23:11:46;;;;;;;7.20;4.90;;;14.00;94.10;;;;;;21083517;28;20722;-81
2023/03/23 23:21:47;;;;;;;6.57;4.60;;;13.90;94.40;;;;;;21083402;28;20240;-82
2023/03/23 23:31:49;;;;;;;6.40;5.07;;;13.90;94.40;;;;;;21082698;28;20520;-83
2023/03/23 23:41:51;;;;;;;7.70;5.37;;;;;;;;;;21081891;28;20213;-80
2023/03/23 23:51:54;;;;;;;26.47;5.60;;;;;;;;;;21081256;28;20292;-80
